Time;durP1;ratioP1;P1;durP2;ratioP2;P2;SDS_P1;SDS_P2;PMS_P1;PMS_P2;Temp;Humidity;BMP_temperature;BMP_pressure;BME280_temperature;BME280_humidity;BME280_pressure;Samples;Min_cycle;Max_cycle;Signal;HPM_P1;HPM_P2
2022/11/30 00:01:19;;;;;;;0.10;0.10;;;8.30;99.90;;;;;;5083486;28;20200;-81
2022/11/30 00:03:45;;;;;;;0.00;0.00;;;8.30;99.90;;;;;;5081601;28;20195;-81
2022/11/30 00:06:15;;;;;;;0.10;0.10;;;8.30;99.90;;;;;;5066549;28;20247;-81
2022/11/30 00:08:41;;;;;;;0.10;0.10;;;8.30;99.90;;;;;;5066228;28;20269;-81
2022/11/30 00:11:13;;;;;;;0.10;0.10;;;8.40;99.90;;;;;;5066043;28;20216;-82
2022/11/30 00:13:38;;;;;;;0.10;0.10;;;8.40;99.90;;;;;;5066222;28;20230;-81
2022/11/30 00:16:04;;;;;;;0.10;0.10;;;8.40;99.90;;;;;;5063229;28;20730;-82
2022/11/30 00:18:30;;;;;;;0.10;0.10;;;8.50;99.90;;;;;;5061493;28;20195;-82
2022/11/30 00:21:04;;;;;;;0.10;0.10;;;8.50;99.90;;;;;;5066283;28;20249;-82
2022/11/30 00:23:32;;;;;;;0.10;0.10;;;8.60;99.90;;;;;;5064945;28;20177;-83
2022/11/30 00:26:02;;;;;;;0.10;0.10;;;8.60;99.90;;;;;;5068680;28;20271;-81
2022/11/30 00:28:29;;;;;;;0.10;0.10;;;8.60;99.90;;;;;;5082947;28;20194;-81
2022/11/30 00:31:00;;;;;;;0.10;0.10;;;8.70;99.90;;;;;;5081535;28;20277;-82
2022/11/30 00:33:26;;;;;;;0.10;0.10;;;8.70;99.90;;;;;;5066205;28;20209;-81
2022/11/30 00:35:59;;;;;;;0.10;0.10;;;8.80;99.90;;;;;;5068265;28;20689;-83
2022/11/30 00:38:25;;;;;;;0.10;0.10;;;8.80;99.90;;;;;;5065795;28;20242;-82
2022/11/30 00:40:50;;;;;;;0.10;0.10;;;8.70;99.90;;;;;;5066808;28;20601;-83
2022/11/30 00:43:16;;;;;;;0.10;0.10;;;8.70;99.90;;;;;;5068492;28;20188;-81
2022/11/30 00:45:42;;;;;;;0.10;0.10;;;8.70;99.90;;;;;;5067384;28;20233;-82
2022/11/30 00:48:07;;;;;;;0.10;0.10;;;8.70;99.90;;;;;;5068174;28;20199;-81
2022/11/30 00:50:33;;;;;;;0.10;0.10;;;8.60;99.90;;;;;;5068540;28;20187;-81
2022/11/30 00:52:59;;;;;;;0.10;0.10;;;8.60;99.90;;;;;;5066714;28;20226;-82
2022/11/30 00:55:26;;;;;;;0.10;0.10;;;8.50;99.90;;;;;;5067990;28;20217;-82
2022/11/30 00:57:51;;;;;;;0.10;0.10;;;8.40;99.90;;;;;;5066616;28;20184;-83
2022/11/30 01:00:17;;;;;;;0.10;0.10;;;8.40;99.90;;;;;;5066722;28;20272;-81
2022/11/30 01:02:43;;;;;;;0.10;0.10;;;8.40;99.90;;;;;;5067433;28;20570;-82
2022/11/30 01:05:09;;;;;;;0.10;0.10;;;8.50;99.90;;;;;;5063193;28;20211;-82
2022/11/30 01:07:35;;;;;;;0.10;0.10;;;8.60;99.90;;;;;;5064237;28;20198;-80
2022/11/30 01:10:01;;;;;;;0.10;0.10;;;8.70;99.90;;;;;;5063558;28;20756;-83
2022/11/30 01:12:26;;;;;;;0.10;0.10;;;8.70;99.90;;;;;;5065093;28;20706;-81
2022/11/30 01:14:52;;;;;;;0.10;0.10;;;8.80;99.90;;;;;;5064211;28;20283;-81
2022/11/30 01:17:17;;;;;;;0.10;0.10;;;8.80;99.90;;;;;;5064102;28;20204;-81
2022/11/30 01:19:43;;;;;;;0.10;0.10;;;8.80;99.90;;;;;;5063376;28;20194;-81
2022/11/30 01:22:08;;;;;;;0.10;0.10;;;8.80;99.90;;;;;;5066091;28;20203;-82
2022/11/30 01:24:34;;;;;;;0.10;0.10;;;8.70;99.90;;;;;;5064929;28;20208;-81
2022/11/30 01:26:59;;;;;;;0.10;0.10;;;8.70;99.90;;;;;;5065643;28;20198;-82
2022/11/30 01:29:25;;;;;;;0.10;0.10;;;8.70;99.90;;;;;;5064701;28;21115;-82
2022/11/30 01:31:51;;;;;;;0.10;0.10;;;8.80;99.90;;;;;;5065443;28;21005;-82
2022/11/30 01:34:16;;;;;;;0.10;0.10;;;8.70;99.90;;;;;;5065707;28;20782;-81
2022/11/30 01:36:42;;;;;;;0.10;0.10;;;8.70;99.90;;;;;;5065849;28;20194;-81
2022/11/30 01:39:08;;;;;;;0.10;0.10;;;8.70;99.90;;;;;;5066676;28;20953;-83
2022/11/30 01:41:35;;;;;;;0.10;0.10;;;8.60;99.90;;;;;;5065108;28;20276;-82
2022/11/30 01:44:04;;;;;;;0.10;0.10;;;8.70;99.90;;;;;;5065090;28;20189;-81
2022/11/30 01:46:39;;;;;;;0.00;0.00;;;8.50;99.90;;;;;;5065016;28;20274;-82
2022/11/30 01:49:04;;;;;;;0.10;0.10;;;8.40;99.90;;;;;;5066402;28;20289;-81
2022/11/30 01:51:48;;;;;;;0.10;0.10;;;8.40;99.90;;;;;;5066203;28;20833;-81
2022/11/30 01:54:19;;;;;;;0.10;0.10;;;8.40;99.90;;;;;;5066046;28;20277;-81
2022/11/30 01:56:50;;;;;;;0.10;0.10;;;8.30;99.90;;;;;;5065439;28;20187;-82
2022/11/30 01:59:18;;;;;;;0.00;0.00;;;8.30;99.90;;;;;;5065675;28;20184;-81
2022/11/30 02:01:44;;;;;;;0.10;0.10;;;8.40;99.90;;;;;;5066773;28;20216;-81
2022/11/30 02:04:27;;;;;;;0.10;0.10;;;8.40;99.90;;;;;;5065984;28;20676;-80
2022/11/30 02:06:53;;;;;;;0.10;0.10;;;8.50;99.90;;;;;;5078631;28;20218;-82
2022/11/30 02:09:21;;;;;;;0.10;0.10;;;8.50;99.90;;;;;;5062525;28;20210;-81
2022/11/30 02:11:47;;;;;;;0.00;0.00;;;8.60;99.90;;;;;;5062968;28;20206;-82
2022/11/30 02:14:31;;;;;;;0.00;0.00;;;8.60;99.90;;;;;;5063209;28;20236;-82
2022/11/30 02:17:15;;;;;;;0.10;0.10;;;8.70;99.90;;;;;;5063589;28;20186;-81
2022/11/30 02:20:28;;;;;;;0.10;0.10;;;8.60;99.90;;;;;;5062676;28;20204;-82
2022/11/30 02:23:28;;;;;;;0.10;0.10;;;8.70;99.90;;;;;;5005363;28;20804;-81
2022/11/30 02:26:18;;;;;;;0.10;0.10;;;8.60;99.90;;;;;;5063450;28;20211;-82
2022/11/30 02:28:59;;;;;;;0.10;0.10;;;8.70;99.90;;;;;;5079106;28;20188;-81
2022/11/30 02:31:39;;;;;;;0.10;0.10;;;8.70;99.90;;;;;;5062490;28;20767;-81
2022/11/30 02:34:07;;;;;;;0.10;0.10;;;8.80;99.90;;;;;;5079993;28;20229;-82
2022/11/30 02:36:33;;;;;;;0.10;0.10;;;8.80;99.90;;;;;;5080172;28;20194;-82
2022/11/30 02:38:59;;;;;;;0.10;0.10;;;8.80;99.90;;;;;;5060853;28;20551;-82
2022/11/30 02:41:24;;;;;;;0.10;0.10;;;8.90;99.90;;;;;;5063864;28;20191;-82
2022/11/30 02:43:50;;;;;;;0.10;0.10;;;8.80;99.90;;;;;;5062173;28;20180;-81
2022/11/30 02:46:29;;;;;;;0.10;0.10;;;8.70;99.90;;;;;;5063065;28;20302;-81
2022/11/30 02:49:06;;;;;;;0.10;0.10;;;8.70;99.90;;;;;;5079063;28;20191;-81
2022/11/30 02:51:34;;;;;;;0.10;0.10;;;8.50;99.90;;;;;;5061308;28;20201;-81
2022/11/30 02:54:00;;;;;;;0.10;0.10;;;8.40;99.90;;;;;;5061609;28;20191;-80
2022/11/30 02:56:25;;;;;;;0.10;0.10;;;8.30;99.90;;;;;;5062576;28;20546;-82
2022/11/30 02:58:51;;;;;;;0.00;0.00;;;8.30;99.90;;;;;;5063763;28;20668;-81
2022/11/30 03:01:16;;;;;;;0.10;0.10;;;8.30;99.90;;;;;;5066540;28;20193;-82
2022/11/30 03:03:43;;;;;;;0.10;0.10;;;8.20;99.90;;;;;;5062829;28;20302;-81
2022/11/30 03:06:09;;;;;;;0.10;0.10;;;8.10;99.90;;;;;;5063324;28;20303;-81
2022/11/30 03:08:34;;;;;;;0.10;0.10;;;8.20;99.90;;;;;;5063635;28;20270;-81
2022/11/30 03:11:02;;;;;;;0.10;0.10;;;8.20;99.90;;;;;;5065142;28;20190;-81
2022/11/30 03:13:33;;;;;;;0.10;0.10;;;8.10;99.90;;;;;;5064503;28;20769;-81
2022/11/30 03:16:08;;;;;;;0.10;0.10;;;8.10;99.90;;;;;;5063953;28;20275;-81
2022/11/30 03:18:34;;;;;;;0.10;0.10;;;8.20;99.90;;;;;;5065849;28;20174;-81
2022/11/30 03:20:59;;;;;;;0.10;0.10;;;8.30;99.90;;;;;;5066245;28;20197;-81
2022/11/30 03:23:25;;;;;;;0.10;0.10;;;8.40;99.90;;;;;;5063685;28;20206;-82
2022/11/30 03:25:50;;;;;;;0.00;0.00;;;8.40;99.90;;;;;;5064009;28;20689;-81
2022/11/30 03:28:16;;;;;;;0.10;0.10;;;8.50;99.90;;;;;;5065458;28;20187;-82
2022/11/30 03:30:48;;;;;;;0.10;0.10;;;8.60;99.90;;;;;;5062952;28;20186;-81
2022/11/30 03:33:13;;;;;;;0.10;0.10;;;8.60;99.90;;;;;;5062957;28;20220;-82
2022/11/30 03:35:39;;;;;;;0.10;0.10;;;8.60;99.90;;;;;;5062584;28;20206;-82
2022/11/30 03:38:04;;;;;;;0.10;0.10;;;8.60;99.90;;;;;;5062900;28;20203;-82
2022/11/30 03:40:30;;;;;;;0.10;0.10;;;8.60;99.90;;;;;;5060564;28;21182;-82
2022/11/30 03:42:55;;;;;;;0.07;0.07;;;8.60;99.90;;;;;;5066036;28;20191;-81
2022/11/30 03:45:21;;;;;;;0.10;0.10;;;8.60;99.90;;;;;;5065668;28;20210;-81
2022/11/30 03:47:46;;;;;;;0.10;0.10;;;8.60;99.90;;;;;;5066465;28;20261;-82
2022/11/30 03:50:12;;;;;;;0.10;0.10;;;8.60;99.90;;;;;;5065301;28;20191;-82
2022/11/30 03:52:38;;;;;;;0.10;0.10;;;8.50;99.90;;;;;;5065965;28;20202;-82
2022/11/30 03:55:03;;;;;;;0.00;0.00;;;8.60;99.90;;;;;;5067246;28;20749;-82
2022/11/30 03:57:29;;;;;;;0.10;0.10;;;8.60;99.90;;;;;;5065682;28;20186;-81
2022/11/30 03:59:54;;;;;;;0.10;0.10;;;8.70;99.90;;;;;;5065326;28;20197;-82
2022/11/30 04:02:20;;;;;;;0.10;0.10;;;8.70;99.90;;;;;;5064948;28;20178;-80
2022/11/30 04:04:46;;;;;;;0.10;0.10;;;8.70;99.90;;;;;;5066470;28;20211;-82
2022/11/30 04:07:11;;;;;;;0.10;0.10;;;8.80;99.90;;;;;;5064817;28;20183;-81
2022/11/30 04:09:37;;;;;;;0.00;0.00;;;8.80;99.90;;;;;;5064841;28;20229;-81
2022/11/30 04:12:02;;;;;;;0.10;0.10;;;8.60;99.90;;;;;;5065526;28;20207;-82
2022/11/30 04:14:28;;;;;;;0.10;0.10;;;8.60;99.90;;;;;;5065211;28;20727;-82
2022/11/30 04:16:53;;;;;;;0.10;0.10;;;8.60;99.90;;;;;;5064397;28;20956;-82
2022/11/30 04:19:19;;;;;;;0.10;0.10;;;8.50;99.90;;;;;;5065092;28;20951;-82
2022/11/30 04:21:44;;;;;;;0.10;0.10;;;8.60;99.90;;;;;;5064489;28;20965;-81
2022/11/30 04:24:10;;;;;;;0.10;0.10;;;8.50;99.90;;;;;;5064466;28;20187;-81
2022/11/30 04:26:35;;;;;;;0.10;0.10;;;8.60;99.90;;;;;;5064724;28;20187;-81
2022/11/30 04:29:01;;;;;;;0.10;0.10;;;8.60;99.90;;;;;;5065319;28;20191;-82
2022/11/30 04:31:26;;;;;;;0.00;0.00;;;8.60;99.90;;;;;;5064697;28;21053;-82
2022/11/30 04:33:53;;;;;;;0.10;0.10;;;8.70;99.90;;;;;;5066890;28;20638;-81
2022/11/30 04:36:19;;;;;;;0.10;0.10;;;8.70;99.90;;;;;;5065455;28;20205;-81
2022/11/30 04:38:45;;;;;;;0.10;0.10;;;8.70;99.90;;;;;;5066053;28;20182;-82
2022/11/30 04:41:11;;;;;;;0.10;0.10;;;8.80;99.90;;;;;;5062819;28;20238;-81
2022/11/30 04:43:37;;;;;;;0.10;0.10;;;8.80;99.90;;;;;;5063574;28;20579;-82
2022/11/30 04:46:04;;;;;;;0.10;0.10;;;8.80;99.90;;;;;;5066228;28;20207;-82
2022/11/30 04:48:29;;;;;;;0.10;0.10;;;8.80;99.90;;;;;;5065772;28;20295;-82
2022/11/30 04:51:01;;;;;;;0.03;0.03;;;8.80;99.90;;;;;;5063867;28;20273;-81
2022/11/30 04:53:26;;;;;;;0.10;0.10;;;8.80;99.90;;;;;;5066366;28;20179;-81
2022/11/30 04:55:52;;;;;;;0.10;0.10;;;8.80;99.90;;;;;;5066871;28;20204;-82
2022/11/30 04:58:17;;;;;;;0.10;0.10;;;8.70;99.90;;;;;;5068179;28;20192;-81
2022/11/30 05:00:43;;;;;;;0.10;0.10;;;8.80;99.90;;;;;;5067311;28;20184;-82
2022/11/30 05:03:08;;;;;;;0.10;0.10;;;8.70;99.90;;;;;;5067658;28;20617;-81
2022/11/30 05:05:34;;;;;;;0.10;0.10;;;8.80;99.90;;;;;;5065845;28;20636;-82
2022/11/30 05:08:00;;;;;;;0.10;0.10;;;8.80;99.90;;;;;;5067848;28;20195;-82
2022/11/30 05:10:27;;;;;;;0.10;0.10;;;8.80;99.90;;;;;;5068349;28;20569;-81
2022/11/30 05:12:52;;;;;;;0.10;0.10;;;8.80;99.90;;;;;;5066856;28;20970;-82
2022/11/30 05:15:18;;;;;;;0.10;0.10;;;8.80;99.90;;;;;;5065357;28;20213;-82
2022/11/30 05:17:44;;;;;;;0.10;0.10;;;8.80;99.90;;;;;;5066253;28;20190;-81
2022/11/30 05:20:10;;;;;;;0.10;0.10;;;8.80;99.90;;;;;;5067471;28;20555;-82
2022/11/30 05:22:35;;;;;;;0.10;0.10;;;8.80;99.90;;;;;;5068323;28;20200;-82
2022/11/30 05:25:01;;;;;;;0.10;0.10;;;8.80;99.90;;;;;;5068159;28;20214;-83
2022/11/30 05:27:27;;;;;;;0.10;0.10;;;8.80;99.90;;;;;;5064393;28;20191;-82
2022/11/30 05:29:53;;;;;;;0.10;0.10;;;8.80;99.90;;;;;;5062678;28;20217;-82
2022/11/30 05:32:18;;;;;;;0.10;0.10;;;8.70;99.90;;;;;;5062993;28;20304;-82
2022/11/30 05:34:44;;;;;;;0.10;0.10;;;8.80;99.90;;;;;;5064860;28;20218;-81
2022/11/30 05:37:09;;;;;;;0.10;0.10;;;8.80;99.90;;;;;;5062762;28;20268;-83
2022/11/30 05:39:35;;;;;;;0.10;0.10;;;8.80;99.90;;;;;;5063894;28;20214;-82
2022/11/30 05:42:00;;;;;;;0.00;0.00;;;8.80;99.90;;;;;;5063312;28;20195;-83
2022/11/30 05:44:26;;;;;;;0.10;0.10;;;8.80;99.90;;;;;;5063617;28;20214;-82
2022/11/30 05:46:51;;;;;;;0.10;0.10;;;8.80;99.90;;;;;;5079098;28;20745;-83
2022/11/30 05:49:17;;;;;;;0.10;0.10;;;8.80;99.90;;;;;;5081194;28;20186;-81
2022/11/30 05:51:42;;;;;;;0.10;0.10;;;8.70;99.90;;;;;;5081750;28;20233;-82
2022/11/30 05:54:08;;;;;;;0.10;0.10;;;8.80;99.90;;;;;;5080656;28;20168;-82
2022/11/30 05:56:34;;;;;;;0.10;0.10;;;8.60;99.90;;;;;;5079047;28;20651;-82
2022/11/30 05:58:59;;;;;;;0.10;0.10;;;8.70;99.90;;;;;;5071091;28;20244;-82
2022/11/30 06:01:27;;;;;;;0.10;0.10;;;8.70;99.90;;;;;;5071015;28;20192;-81
2022/11/30 06:03:53;;;;;;;0.10;0.10;;;8.70;99.90;;;;;;5069953;28;20222;-80
2022/11/30 06:06:19;;;;;;;0.10;0.10;;;8.70;99.90;;;;;;5086105;28;20191;-80
2022/11/30 06:08:45;;;;;;;0.10;0.10;;;8.70;99.90;;;;;;5068974;28;20192;-80
2022/11/30 06:11:11;;;;;;;0.10;0.10;;;8.70;99.90;;;;;;5068659;28;20217;-80
2022/11/30 06:13:38;;;;;;;0.10;0.10;;;8.60;99.90;;;;;;5068114;28;20721;-82
2022/11/30 06:16:04;;;;;;;0.10;0.10;;;8.50;99.90;;;;;;5065767;28;20215;-88
2022/11/30 06:18:30;;;;;;;0.10;0.10;;;8.50;99.90;;;;;;5071981;28;20179;-88
2022/11/30 06:21:22;;;;;;;0.10;0.10;;;8.50;99.90;;;;;;5070643;28;20185;-82
2022/11/30 06:23:48;;;;;;;0.10;0.10;;;8.50;99.90;;;;;;5066356;28;20625;-88
2022/11/30 06:26:13;;;;;;;0.10;0.10;;;8.50;99.90;;;;;;5070240;28;20221;-82
2022/11/30 06:28:39;;;;;;;0.10;0.10;;;8.60;99.90;;;;;;5070973;28;20194;-83
2022/11/30 06:31:06;;;;;;;0.10;0.10;;;8.60;99.90;;;;;;5070281;28;20279;-83
2022/11/30 06:33:33;;;;;;;0.10;0.10;;;8.60;99.90;;;;;;5069323;28;23896;-83
2022/11/30 06:35:58;;;;;;;10.40;4.20;;;8.60;99.90;;;;;;5065621;28;20212;-81
2022/11/30 06:38:24;;;;;;;0.10;0.10;;;8.70;99.90;;;;;;5066556;28;20189;-81
2022/11/30 06:40:51;;;;;;;0.10;0.10;;;8.60;99.90;;;;;;5066202;28;20177;-80
2022/11/30 06:43:17;;;;;;;0.10;0.10;;;8.70;99.90;;;;;;5066940;28;20852;-82
2022/11/30 06:45:44;;;;;;;0.00;0.00;;;8.60;99.90;;;;;;5068953;28;20223;-81
2022/11/30 06:48:10;;;;;;;0.10;0.10;;;8.40;99.90;;;;;;5067239;28;20988;-82
2022/11/30 06:50:36;;;;;;;0.10;0.10;;;8.40;99.90;;;;;;5065824;28;20541;-82
2022/11/30 06:53:01;;;;;;;0.10;0.10;;;8.30;99.90;;;;;;5065320;28;20211;-82
2022/11/30 06:55:31;;;;;;;0.07;0.07;;;8.20;99.90;;;;;;5068447;28;21123;-80
2022/11/30 06:58:04;;;;;;;0.03;0.03;;;8.00;99.90;;;;;;5065454;28;20197;-81
2022/11/30 07:00:29;;;;;;;0.10;0.10;;;7.90;99.90;;;;;;5067437;28;20589;-80
2022/11/30 07:02:55;;;;;;;0.10;0.10;;;7.80;99.90;;;;;;5067852;28;20255;-81
2022/11/30 07:05:20;;;;;;;0.10;0.10;;;7.80;99.90;;;;;;5065298;28;20247;-81
2022/11/30 07:07:46;;;;;;;0.00;0.00;;;7.80;99.90;;;;;;5066782;28;20193;-82
2022/11/30 07:10:11;;;;;;;0.10;0.10;;;7.90;99.90;;;;;;5065741;28;20318;-82
2022/11/30 07:12:37;;;;;;;0.10;0.10;;;7.90;99.90;;;;;;5066182;28;20268;-81
2022/11/30 07:15:04;;;;;;;0.10;0.10;;;8.00;99.90;;;;;;5066525;28;20206;-82
2022/11/30 07:17:29;;;;;;;0.10;0.10;;;8.10;99.90;;;;;;5069513;28;20754;-82
2022/11/30 07:19:55;;;;;;;0.10;0.10;;;8.20;99.90;;;;;;5068331;28;20196;-82
2022/11/30 07:22:20;;;;;;;0.10;0.10;;;8.20;99.90;;;;;;5070136;28;20179;-81
2022/11/30 07:27:30;;;;;;;0.00;0.00;;;8.10;99.90;;;;;;5069248;28;20289;-81
2022/11/30 07:29:56;;;;;;;0.10;0.10;;;8.10;99.90;;;;;;5070347;28;20458;-81
2022/11/30 07:32:21;;;;;;;0.10;0.10;;;8.10;99.90;;;;;;5070095;28;20202;-82
2022/11/30 07:34:47;;;;;;;0.10;0.10;;;8.30;99.90;;;;;;5066826;28;20208;-81
2022/11/30 07:37:12;;;;;;;0.00;0.00;;;8.40;99.90;;;;;;5067824;28;20188;-83
2022/11/30 07:39:38;;;;;;;0.10;0.10;;;8.50;99.90;;;;;;5065336;28;20198;-81
2022/11/30 07:42:03;;;;;;;0.10;0.10;;;8.60;99.90;;;;;;5069325;28;20218;-81
2022/11/30 07:44:29;;;;;;;0.10;0.10;;;8.70;99.90;;;;;;5068307;28;20206;-84
2022/11/30 07:46:54;;;;;;;0.10;0.10;;;8.80;99.90;;;;;;5066651;28;20442;-80
2022/11/30 07:49:20;;;;;;;0.10;0.10;;;8.90;99.90;;;;;;5065362;28;20518;-81
2022/11/30 07:51:45;;;;;;;0.10;0.10;;;8.90;99.90;;;;;;5067220;28;20245;-81
2022/11/30 07:54:11;;;;;;;0.10;0.10;;;8.90;99.90;;;;;;5066180;28;20246;-82
2022/11/30 07:56:36;;;;;;;0.10;0.10;;;9.00;99.90;;;;;;5065979;28;20190;-82
2022/11/30 07:59:03;;;;;;;0.10;0.10;;;9.10;99.90;;;;;;5065199;28;20602;-81
2022/11/30 08:01:31;;;;;;;0.10;0.10;;;9.00;99.90;;;;;;5065044;28;20190;-81
2022/11/30 08:03:57;;;;;;;0.10;0.10;;;9.00;99.90;;;;;;5065940;28;21291;-81
2022/11/30 08:06:26;;;;;;;0.10;0.10;;;9.10;99.90;;;;;;5067121;28;20264;-82
2022/11/30 08:08:53;;;;;;;0.10;0.10;;;9.10;99.90;;;;;;5067711;28;20297;-83
2022/11/30 08:11:37;;;;;;;0.10;0.10;;;8.90;99.90;;;;;;5082742;28;20222;-81
2022/11/30 08:14:03;;;;;;;0.10;0.10;;;8.90;99.90;;;;;;5066347;28;20295;-81
2022/11/30 08:16:33;;;;;;;0.10;0.10;;;8.90;99.90;;;;;;5066025;28;20543;-82
2022/11/30 08:18:58;;;;;;;0.10;0.10;;;8.80;99.90;;;;;;5065839;28;20642;-82
2022/11/30 08:21:24;;;;;;;0.10;0.10;;;8.90;99.90;;;;;;5066700;28;20295;-82
2022/11/30 08:23:52;;;;;;;0.10;0.10;;;8.90;99.90;;;;;;5065917;28;20665;-82
2022/11/30 08:26:24;;;;;;;0.10;0.10;;;9.10;99.90;;;;;;5064885;28;20211;-82
2022/11/30 08:28:51;;;;;;;0.10;0.10;;;9.20;99.90;;;;;;5066207;28;20178;-81
2022/11/30 08:31:20;;;;;;;0.10;0.10;;;9.30;99.90;;;;;;5066973;28;20653;-81
2022/11/30 08:33:46;;;;;;;0.10;0.10;;;9.40;99.90;;;;;;5065887;28;20606;-82
2022/11/30 08:36:16;;;;;;;0.10;0.10;;;9.50;99.90;;;;;;5064533;28;20239;-82
2022/11/30 08:38:43;;;;;;;0.10;0.10;;;9.50;99.90;;;;;;5082421;28;20190;-83
2022/11/30 08:41:11;;;;;;;0.10;0.10;;;9.60;99.90;;;;;;5065375;28;20616;-82
2022/11/30 08:43:37;;;;;;;0.10;0.10;;;9.70;99.90;;;;;;5065369;28;20183;-82
2022/11/30 08:46:05;;;;;;;0.10;0.10;;;9.40;99.90;;;;;;5065809;28;20201;-82
2022/11/30 08:48:31;;;;;;;0.10;0.10;;;9.30;99.90;;;;;;5067180;28;20178;-81
2022/11/30 08:51:01;;;;;;;0.10;0.10;;;9.20;99.90;;;;;;5066777;28;20195;-82
2022/11/30 08:53:29;;;;;;;0.10;0.10;;;9.10;99.90;;;;;;5067199;28;20454;-81
2022/11/30 08:55:57;;;;;;;0.10;0.10;;;9.10;99.90;;;;;;5066518;28;20311;-84
2022/11/30 08:58:22;;;;;;;0.10;0.10;;;9.10;99.90;;;;;;5065751;28;20199;-81
2022/11/30 09:00:48;;;;;;;0.10;0.10;;;9.20;99.90;;;;;;5065863;28;20210;-82
2022/11/30 09:03:13;;;;;;;0.10;0.10;;;9.40;99.90;;;;;;5062757;28;20213;-82
2022/11/30 09:05:39;;;;;;;0.10;0.10;;;9.70;99.90;;;;;;5062511;28;20218;-82
2022/11/30 09:08:04;;;;;;;0.10;0.10;;;9.70;99.90;;;;;;5062416;28;20194;-82
2022/11/30 09:10:30;;;;;;;0.10;0.10;;;9.90;99.90;;;;;;5063890;28;20199;-81
2022/11/30 09:12:55;;;;;;;0.10;0.10;;;10.10;99.90;;;;;;5064585;28;20223;-82
2022/11/30 09:15:21;;;;;;;0.10;0.10;;;10.10;99.90;;;;;;5064148;28;20211;-81
2022/11/30 09:17:46;;;;;;;0.10;0.10;;;10.20;99.90;;;;;;5063471;28;20181;-82
2022/11/30 09:20:12;;;;;;;0.10;0.10;;;10.30;99.90;;;;;;5064448;28;20200;-82
2022/11/30 09:22:39;;;;;;;0.10;0.10;;;10.40;99.90;;;;;;5063844;28;20282;-82
2022/11/30 09:25:05;;;;;;;0.10;0.10;;;10.50;99.90;;;;;;5062750;28;20215;-82
2022/11/30 09:27:31;;;;;;;0.10;0.10;;;10.70;99.90;;;;;;5063500;28;20197;-82
2022/11/30 09:29:57;;;;;;;0.10;0.10;;;10.80;99.90;;;;;;5061873;28;20192;-82
2022/11/30 09:32:23;;;;;;;0.10;0.10;;;11.00;99.90;;;;;;5065399;28;20213;-82
2022/11/30 09:34:48;;;;;;;0.10;0.10;;;11.10;99.90;;;;;;5062198;28;20197;-81
2022/11/30 09:37:14;;;;;;;0.10;0.10;;;11.10;99.90;;;;;;5063998;28;20189;-82
2022/11/30 09:39:39;;;;;;;0.10;0.10;;;11.30;99.90;;;;;;5062184;28;20215;-81
2022/11/30 09:42:25;;;;;;;0.10;0.10;;;11.30;99.90;;;;;;5063335;28;20223;-82
2022/11/30 09:45:06;;;;;;;0.10;0.10;;;10.90;99.90;;;;;;5064948;28;20209;-82
2022/11/30 09:47:41;;;;;;;0.10;0.10;;;10.50;99.90;;;;;;5063317;28;20212;-83
2022/11/30 09:50:20;;;;;;;0.10;0.10;;;10.40;99.90;;;;;;5062610;28;20258;-82
2022/11/30 09:52:49;;;;;;;0.10;0.10;;;10.40;99.90;;;;;;5061890;28;20539;-82
2022/11/30 09:55:24;;;;;;;0.10;0.10;;;10.50;99.90;;;;;;5063646;28;20220;-81
2022/11/30 09:58:01;;;;;;;0.10;0.10;;;10.70;99.90;;;;;;5063227;28;20184;-81
2022/11/30 10:00:27;;;;;;;0.10;0.10;;;10.80;99.90;;;;;;5064848;28;20673;-85
2022/11/30 10:02:56;;;;;;;0.10;0.10;;;10.70;99.90;;;;;;5064618;28;20223;-82
2022/11/30 10:05:24;;;;;;;0.10;0.10;;;10.60;99.90;;;;;;5063286;28;20303;-83
2022/11/30 10:08:27;;;;;;;0.10;0.10;;;10.70;99.90;;;;;;5078533;28;20193;-85
2022/11/30 10:11:22;;;;;;;0.10;0.10;;;10.40;99.90;;;;;;5060500;28;20192;-83
2022/11/30 10:14:20;;;;;;;0.10;0.10;;;10.00;99.90;;;;;;5056066;28;20209;-82
2022/11/30 10:17:11;;;;;;;0.10;0.10;;;10.20;99.90;;;;;;5058391;28;20209;-82
2022/11/30 10:19:55;;;;;;;0.10;0.10;;;10.20;99.90;;;;;;5065474;28;20188;-83
2022/11/30 10:22:58;;;;;;;0.10;0.10;;;10.40;99.90;;;;;;5063885;28;20684;-83
2022/11/30 10:25:34;;;;;;;0.10;0.10;;;10.40;99.90;;;;;;5064601;28;20216;-84
2022/11/30 10:28:25;;;;;;;0.10;0.10;;;10.40;99.90;;;;;;5054328;28;20184;-82
2022/11/30 10:30:51;;;;;;;0.10;0.10;;;10.40;99.90;;;;;;5062113;28;20597;-82
2022/11/30 10:33:25;;;;;;;0.10;0.10;;;10.10;99.90;;;;;;5060882;28;20257;-83
2022/11/30 10:35:55;;;;;;;0.10;0.10;;;9.80;99.90;;;;;;5062256;28;20207;-84
2022/11/30 10:38:26;;;;;;;0.10;0.10;;;9.60;99.90;;;;;;5062514;28;20245;-83
2022/11/30 10:41:23;;;;;;;0.10;0.10;;;9.40;99.90;;;;;;5063947;28;20188;-81
2022/11/30 10:43:59;;;;;;;0.10;0.10;;;9.20;99.90;;;;;;5062535;28;20645;-83
2022/11/30 10:46:30;;;;;;;0.10;0.10;;;9.20;99.90;;;;;;5060721;28;20308;-84
2022/11/30 10:49:01;;;;;;;0.10;0.10;;;9.40;99.90;;;;;;5066191;28;20286;-83
2022/11/30 10:51:28;;;;;;;0.10;0.10;;;9.60;99.90;;;;;;5062534;28;20224;-82
2022/11/30 10:53:53;;;;;;;0.10;0.10;;;9.80;99.90;;;;;;5077111;28;20176;-82
2022/11/30 10:56:19;;;;;;;0.10;0.10;;;9.90;99.90;;;;;;5061315;28;20325;-81
2022/11/30 10:58:51;;;;;;;0.10;0.10;;;10.00;99.90;;;;;;5059998;28;20736;-82
2022/11/30 11:01:35;;;;;;;0.10;0.10;;;10.00;99.90;;;;;;5061414;28;20196;-81
2022/11/30 11:04:08;;;;;;;0.10;0.10;;;10.10;99.90;;;;;;5062391;28;20207;-81
2022/11/30 11:06:35;;;;;;;0.10;0.10;;;10.20;99.90;;;;;;5059201;28;20272;-82
2022/11/30 11:09:41;;;;;;;0.00;0.00;;;10.20;99.90;;;;;;5062382;28;20187;-82
2022/11/30 11:12:27;;;;;;;0.10;0.10;;;10.30;99.90;;;;;;5061680;28;20700;-81
2022/11/30 11:15:25;;;;;;;0.00;0.00;;;10.30;99.90;;;;;;5064535;28;20223;-82
2022/11/30 11:17:52;;;;;;;0.10;0.10;;;10.30;99.90;;;;;;5061916;28;20196;-80
2022/11/30 11:20:29;;;;;;;0.10;0.10;;;10.40;99.90;;;;;;5078759;28;20764;-81
2022/11/30 11:22:54;;;;;;;0.10;0.10;;;10.40;99.90;;;;;;5061031;28;20228;-82
2022/11/30 11:25:24;;;;;;;0.10;0.10;;;10.40;99.90;;;;;;5059538;28;20248;-81
2022/11/30 11:27:57;;;;;;;0.00;0.00;;;10.40;99.90;;;;;;5065596;28;20187;-81
2022/11/30 11:30:30;;;;;;;0.10;0.10;;;10.40;99.90;;;;;;5083186;28;20264;-82
2022/11/30 11:32:57;;;;;;;0.10;0.10;;;10.40;99.90;;;;;;5062599;28;20211;-82
2022/11/30 11:35:40;;;;;;;0.10;0.10;;;10.40;99.90;;;;;;5065327;28;20205;-82
2022/11/30 11:38:25;;;;;;;0.10;0.10;;;10.50;99.90;;;;;;5062770;28;21174;-82
2022/11/30 11:40:54;;;;;;;0.00;0.00;;;10.60;99.90;;;;;;5063149;28;20187;-82
2022/11/30 11:43:20;;;;;;;0.10;0.10;;;10.60;99.90;;;;;;5062033;28;20185;-81
2022/11/30 11:46:00;;;;;;;0.10;0.10;;;10.70;99.90;;;;;;5061581;28;20278;-80
2022/11/30 11:48:44;;;;;;;0.10;0.10;;;10.60;99.90;;;;;;5059962;28;20173;-81
2022/11/30 11:51:10;;;;;;;0.10;0.10;;;10.70;99.90;;;;;;5061525;28;20181;-82
2022/11/30 11:53:51;;;;;;;0.10;0.10;;;10.70;99.90;;;;;;5057926;28;20329;-82
2022/11/30 11:56:27;;;;;;;0.10;0.10;;;10.60;99.90;;;;;;5061708;28;20299;-82
2022/11/30 11:59:11;;;;;;;0.10;0.10;;;10.60;99.90;;;;;;5061429;28;20173;-82
2022/11/30 12:01:49;;;;;;;0.10;0.10;;;10.70;99.90;;;;;;5063290;28;20271;-82
2022/11/30 12:04:43;;;;;;;0.10;0.10;;;10.60;99.90;;;;;;5063332;28;20231;-81
2022/11/30 12:07:37;;;;;;;0.10;0.10;;;10.60;99.90;;;;;;5080447;28;20192;-81
2022/11/30 12:10:26;;;;;;;0.10;0.10;;;10.60;99.90;;;;;;5089070;28;20184;-82
2022/11/30 12:12:54;;;;;;;0.10;0.10;;;10.70;99.90;;;;;;5079173;28;20204;-81
2022/11/30 12:15:32;;;;;;;0.10;0.10;;;10.70;99.90;;;;;;5072063;28;20225;-82
2022/11/30 12:18:08;;;;;;;0.10;0.10;;;10.70;99.90;;;;;;5066375;28;20218;-81
2022/11/30 12:21:01;;;;;;;0.10;0.10;;;10.70;99.90;;;;;;5067963;28;20188;-82
2022/11/30 12:23:26;;;;;;;0.10;0.10;;;10.70;99.90;;;;;;5068660;28;20211;-82
2022/11/30 12:26:29;;;;;;;0.10;0.10;;;10.60;99.90;;;;;;5066816;28;20205;-81
2022/11/30 12:28:55;;;;;;;0.10;0.10;;;10.60;99.90;;;;;;5069950;28;20189;-82
2022/11/30 12:31:29;;;;;;;0.10;0.10;;;10.30;99.90;;;;;;5071554;28;20189;-81
2022/11/30 12:34:27;;;;;;;0.10;0.10;;;10.00;99.90;;;;;;5071734;28;20183;-81
2022/11/30 12:37:02;;;;;;;0.10;0.10;;;10.20;99.90;;;;;;5056241;28;20185;-81
2022/11/30 12:39:46;;;;;;;0.10;0.10;;;10.30;99.90;;;;;;5067820;28;20190;-82
2022/11/30 12:42:45;;;;;;;0.10;0.10;;;10.20;99.90;;;;;;5069260;28;20204;-82
2022/11/30 12:45:21;;;;;;;0.10;0.10;;;10.00;99.90;;;;;;5071066;28;20889;-81
2022/11/30 12:47:57;;;;;;;0.10;0.10;;;10.20;99.90;;;;;;5067925;28;20554;-82
2022/11/30 12:50:35;;;;;;;0.10;0.10;;;10.30;99.90;;;;;;5068787;28;20664;-82
2022/11/30 12:53:16;;;;;;;0.10;0.10;;;10.40;99.90;;;;;;5069501;28;20211;-82
2022/11/30 12:56:06;;;;;;;0.10;0.10;;;10.40;99.90;;;;;;5067470;28;20204;-84
2022/11/30 12:58:38;;;;;;;0.10;0.10;;;10.50;99.90;;;;;;5069203;28;20181;-82
2022/11/30 13:01:10;;;;;;;0.10;0.10;;;10.50;99.90;;;;;;5070290;28;20553;-82
2022/11/30 13:03:54;;;;;;;0.10;0.10;;;10.50;99.90;;;;;;5067956;28;20192;-81
2022/11/30 13:06:30;;;;;;;0.00;0.00;;;10.50;99.90;;;;;;5067876;28;20294;-82
2022/11/30 13:09:02;;;;;;;0.10;0.10;;;10.40;99.90;;;;;;5067850;28;20843;-82
2022/11/30 13:11:39;;;;;;;0.10;0.10;;;10.40;99.90;;;;;;5067740;28;20192;-83
2022/11/30 13:14:21;;;;;;;0.00;0.00;;;10.40;99.90;;;;;;5068787;28;20226;-83